sensor_id;sensor_type;location;lat;lon;timestamp;pressure;altitude;pressure_sealevel;temperature;humidity
65897;BME280;52677;50.898;10.854;2023-04-27T00:01:48;98789.75;;;1.75;100.00
65897;BME280;52677;50.898;10.854;2023-04-27T00:03:49;98786.84;;;1.72;100.00
65897;BME280;52677;50.898;10.854;2023-04-27T00:05:50;98775.75;;;1.68;100.00
65897;BME280;52677;50.898;10.854;2023-04-27T00:07:50;98782.75;;;1.60;100.00
65897;BME280;52677;50.898;10.854;2023-04-27T00:09:50;98785.59;;;1.55;100.00
65897;BME280;52677;50.898;10.854;2023-04-27T00:11:51;98780.03;;;1.60;100.00
65897;BME280;52677;50.898;10.854;2023-04-27T00:13:51;98776.50;;;1.60;100.00
65897;BME280;52677;50.898;10.854;2023-04-27T00:15:52;98775.13;;;1.71;100.00
65897;BME280;52677;50.898;10.854;2023-04-27T00:17:52;98777.41;;;1.78;100.00
65897;BME280;52677;50.898;10.854;2023-04-27T00:19:52;98776.41;;;1.74;100.00
65897;BME280;52677;50.898;10.854;2023-04-27T00:21:53;98767.41;;;1.73;100.00
65897;BME280;52677;50.898;10.854;2023-04-27T00:23:54;98782.84;;;1.78;100.00
65897;BME280;52677;50.898;10.854;2023-04-27T00:25:54;98779.50;;;1.81;100.00
65897;BME280;52677;50.898;10.854;2023-04-27T00:27:54;98774.03;;;1.81;100.00
65897;BME280;52677;50.898;10.854;2023-04-27T00:29:55;98765.09;;;1.89;100.00
65897;BME280;52677;50.898;10.854;2023-04-27T00:31:55;98771.72;;;1.96;100.00
65897;BME280;52677;50.898;10.854;2023-04-27T00:33:55;98769.19;;;2.00;100.00
65897;BME280;52677;50.898;10.854;2023-04-27T00:35:59;98769.81;;;2.06;100.00
65897;BME280;52677;50.898;10.854;2023-04-27T00:38:00;98771.31;;;2.12;100.00
65897;BME280;52677;50.898;10.854;2023-04-27T00:40:03;98780.47;;;2.16;100.00
65897;BME280;52677;50.898;10.854;2023-04-27T00:42:05;98773.72;;;2.13;100.00
65897;BME280;52677;50.898;10.854;2023-04-27T00:44:10;98777.56;;;2.12;100.00
65897;BME280;52677;50.898;10.854;2023-04-27T00:46:12;98773.88;;;2.08;100.00
65897;BME280;52677;50.898;10.854;2023-04-27T00:48:12;98770.78;;;2.01;100.00
65897;BME280;52677;50.898;10.854;2023-04-27T00:50:13;98774.75;;;1.95;100.00
65897;BME280;52677;50.898;10.854;2023-04-27T00:52:13;98770.09;;;1.95;100.00
65897;BME280;52677;50.898;10.854;2023-04-27T00:54:14;98771.88;;;1.91;100.00
65897;BME280;52677;50.898;10.854;2023-04-27T00:56:18;98780.50;;;1.85;100.00
65897;BME280;52677;50.898;10.854;2023-04-27T00:58:18;98764.94;;;1.85;100.00
65897;BME280;52677;50.898;10.854;2023-04-27T01:00:19;98771.81;;;1.83;100.00
65897;BME280;52677;50.898;10.854;2023-04-27T01:02:19;98775.16;;;1.80;100.00
65897;BME280;52677;50.898;10.854;2023-04-27T01:04:19;98770.81;;;1.79;100.00
65897;BME280;52677;50.898;10.854;2023-04-27T01:06:20;98773.06;;;1.77;100.00
65897;BME280;52677;50.898;10.854;2023-04-27T01:08:21;98772.06;;;1.73;100.00
65897;BME280;52677;50.898;10.854;2023-04-27T01:10:21;98778.78;;;1.66;100.00
65897;BME280;52677;50.898;10.854;2023-04-27T01:12:21;98766.72;;;1.59;100.00
65897;BME280;52677;50.898;10.854;2023-04-27T01:14:22;98777.31;;;1.60;100.00
65897;BME280;52677;50.898;10.854;2023-04-27T01:16:22;98763.66;;;1.60;100.00
65897;BME280;52677;50.898;10.854;2023-04-27T01:18:22;98770.41;;;1.63;100.00
65897;BME280;52677;50.898;10.854;2023-04-27T01:20:23;98764.47;;;1.61;100.00
65897;BME280;52677;50.898;10.854;2023-04-27T01:22:24;98765.28;;;1.61;100.00
65897;BME280;52677;50.898;10.854;2023-04-27T01:24:24;98761.88;;;1.56;100.00
65897;BME280;52677;50.898;10.854;2023-04-27T01:26:25;98762.19;;;1.54;100.00
65897;BME280;52677;50.898;10.854;2023-04-27T01:28:26;98766.03;;;1.53;100.00
65897;BME280;52677;50.898;10.854;2023-04-27T01:30:26;98759.59;;;1.49;100.00
65897;BME280;52677;50.898;10.854;2023-04-27T01:32:27;98767.59;;;1.46;100.00
65897;BME280;52677;50.898;10.854;2023-04-27T01:34:29;98770.94;;;1.43;100.00
65897;BME280;52677;50.898;10.854;2023-04-27T01:36:29;98770.94;;;1.43;100.00
65897;BME280;52677;50.898;10.854;2023-04-27T01:38:31;98768.53;;;1.41;100.00
65897;BME280;52677;50.898;10.854;2023-04-27T01:40:32;98773.34;;;1.44;100.00
65897;BME280;52677;50.898;10.854;2023-04-27T01:42:33;98774.97;;;1.45;100.00
65897;BME280;52677;50.898;10.854;2023-04-27T01:44:33;98774.31;;;1.48;100.00
65897;BME280;52677;50.898;10.854;2023-04-27T01:46:33;98775.81;;;1.54;100.00
65897;BME280;52677;50.898;10.854;2023-04-27T01:48:34;98770.56;;;1.58;100.00
65897;BME280;52677;50.898;10.854;2023-04-27T01:50:35;98779.72;;;1.62;100.00
65897;BME280;52677;50.898;10.854;2023-04-27T01:52:35;98781.22;;;1.68;100.00
65897;BME280;52677;50.898;10.854;2023-04-27T01:54:35;98777.53;;;1.73;100.00
65897;BME280;52677;50.898;10.854;2023-04-27T01:56:36;98777.41;;;1.78;100.00
65897;BME280;52677;50.898;10.854;2023-04-27T01:58:36;98775.78;;;1.77;100.00
65897;BME280;52677;50.898;10.854;2023-04-27T02:00:36;98784.31;;;1.75;100.00
65897;BME280;52677;50.898;10.854;2023-04-27T02:02:37;98789.25;;;1.73;100.00
65897;BME280;52677;50.898;10.854;2023-04-27T02:04:37;98791.78;;;1.69;100.00
65897;BME280;52677;50.898;10.854;2023-04-27T02:06:37;98791.31;;;1.67;100.00
65897;BME280;52677;50.898;10.854;2023-04-27T02:08:38;98792.72;;;1.65;100.00
65897;BME280;52677;50.898;10.854;2023-04-27T02:10:38;98794.34;;;1.66;100.00
65897;BME280;52677;50.898;10.854;2023-04-27T02:12:39;98791.31;;;1.67;100.00
65897;BME280;52677;50.898;10.854;2023-04-27T02:14:39;98791.00;;;1.69;100.00
65897;BME280;52677;50.898;10.854;2023-04-27T02:16:39;98793.88;;;1.73;100.00
65897;BME280;52677;50.898;10.854;2023-04-27T02:18:40;98794.91;;;1.77;100.00
65897;BME280;52677;50.898;10.854;2023-04-27T02:20:40;98793.59;;;1.74;100.00
65897;BME280;52677;50.898;10.854;2023-04-27T02:22:41;98797.75;;;1.72;100.00
65897;BME280;52677;50.898;10.854;2023-04-27T02:24:42;98801.41;;;1.67;100.00
65897;BME280;52677;50.898;10.854;2023-04-27T02:26:43;98801.22;;;1.63;100.00
65897;BME280;52677;50.898;10.854;2023-04-27T02:28:44;98810.22;;;1.64;100.00
65897;BME280;52677;50.898;10.854;2023-04-27T02:30:45;98805.06;;;1.62;100.00
65897;BME280;52677;50.898;10.854;2023-04-27T02:32:46;98808.91;;;1.61;100.00
65897;BME280;52677;50.898;10.854;2023-04-27T02:34:46;98810.34;;;1.59;100.00
65897;BME280;52677;50.898;10.854;2023-04-27T02:36:47;98817.22;;;1.56;100.00
65897;BME280;52677;50.898;10.854;2023-04-27T02:38:47;98815.00;;;1.58;100.00
65897;BME280;52677;50.898;10.854;2023-04-27T02:40:52;98826.09;;;1.62;100.00
65897;BME280;52677;50.898;10.854;2023-04-27T02:42:53;98830.09;;;1.64;100.00
65897;BME280;52677;50.898;10.854;2023-04-27T02:44:53;98814.06;;;1.63;100.00
65897;BME280;52677;50.898;10.854;2023-04-27T02:46:54;98829.13;;;1.60;100.00
65897;BME280;52677;50.898;10.854;2023-04-27T02:48:54;98824.47;;;1.61;100.00
65897;BME280;52677;50.898;10.854;2023-04-27T02:50:55;98823.34;;;1.62;100.00
65897;BME280;52677;50.898;10.854;2023-04-27T02:52:56;98829.44;;;1.59;100.00
65897;BME280;52677;50.898;10.854;2023-04-27T02:54:56;98829.25;;;1.55;100.00
65897;BME280;52677;50.898;10.854;2023-04-27T02:56:57;98822.31;;;1.49;100.00
65897;BME280;52677;50.898;10.854;2023-04-27T02:58:57;98833.22;;;1.49;100.00
65897;BME280;52677;50.898;10.854;2023-04-27T03:00:57;98831.59;;;1.48;100.00
65897;BME280;52677;50.898;10.854;2023-04-27T03:02:58;98830.78;;;1.48;100.00
65897;BME280;52677;50.898;10.854;2023-04-27T03:04:58;98836.56;;;1.46;100.00
65897;BME280;52677;50.898;10.854;2023-04-27T03:06:58;98840.88;;;1.47;100.00
65897;BME280;52677;50.898;10.854;2023-04-27T03:08:58;98840.09;;;1.47;100.00
65897;BME280;52677;50.898;10.854;2023-04-27T03:10:59;98844.13;;;1.49;100.00
65897;BME280;52677;50.898;10.854;2023-04-27T03:12:59;98838.69;;;1.49;100.00
65897;BME280;52677;50.898;10.854;2023-04-27T03:15:00;98843.03;;;1.50;100.00
65897;BME280;52677;50.898;10.854;2023-04-27T03:17:00;98850.06;;;1.51;100.00
65897;BME280;52677;50.898;10.854;2023-04-27T03:19:02;98830.78;;;1.48;100.00
65897;BME280;52677;50.898;10.854;2023-04-27T03:21:09;98843.03;;;1.50;100.00
65897;BME280;52677;50.898;10.854;2023-04-27T03:23:10;98842.38;;;1.53;100.00
65897;BME280;52677;50.898;10.854;2023-04-27T03:25:11;98845.28;;;1.57;100.00
65897;BME280;52677;50.898;10.854;2023-04-27T03:27:11;98842.44;;;1.62;100.00
65897;BME280;52677;50.898;10.854;2023-04-27T03:29:11;98839.72;;;1.62;100.00
65897;BME280;52677;50.898;10.854;2023-04-27T03:31:13;98857.69;;;1.63;100.00
65897;BME280;52677;50.898;10.854;2023-04-27T03:33:13;98852.13;;;1.68;100.00
65897;BME280;52677;50.898;10.854;2023-04-27T03:35:14;98844.25;;;1.66;100.00
65897;BME280;52677;50.898;10.854;2023-04-27T03:37:15;98846.66;;;1.68;100.00
65897;BME280;52677;50.898;10.854;2023-04-27T03:39:15;98852.63;;;1.70;100.00
65897;BME280;52677;50.898;10.854;2023-04-27T03:41:15;98858.38;;;1.68;100.00
65897;BME280;52677;50.898;10.854;2023-04-27T03:43:17;98859.69;;;1.71;100.00
65897;BME280;52677;50.898;10.854;2023-04-27T03:45:17;98861.97;;;1.78;100.00
65897;BME280;52677;50.898;10.854;2023-04-27T03:47:18;98849.03;;;1.83;100.00
65897;BME280;52677;50.898;10.854;2023-04-27T03:49:18;98852.25;;;1.85;100.00
65897;BME280;52677;50.898;10.854;2023-04-27T03:51:19;98852.59;;;1.92;100.00
65897;BME280;52677;50.898;10.854;2023-04-27T03:53:19;98851.81;;;1.92;100.00
65897;BME280;52677;50.898;10.854;2023-04-27T03:55:19;98862.09;;;1.95;100.00
65897;BME280;52677;50.898;10.854;2023-04-27T03:57:20;98855.03;;;1.94;100.00
65897;BME280;52677;50.898;10.854;2023-04-27T03:59:20;98854.38;;;1.97;100.00
65897;BME280;52677;50.898;10.854;2023-04-27T04:01:20;98870.44;;;1.98;100.00
65897;BME280;52677;50.898;10.854;2023-04-27T04:03:21;98861.28;;;1.94;100.00
65897;BME280;52677;50.898;10.854;2023-04-27T04:05:21;98854.84;;;1.90;100.00
65897;BME280;52677;50.898;10.854;2023-04-27T04:07:22;98848.75;;;1.93;100.00
65897;BME280;52677;50.898;10.854;2023-04-27T04:09:22;98844.91;;;1.94;100.00
65897;BME280;52677;50.898;10.854;2023-04-27T04:11:22;98841.88;;;1.96;100.00
65897;BME280;52677;50.898;10.854;2023-04-27T04:13:22;98843.47;;;1.97;100.00
65897;BME280;52677;50.898;10.854;2023-04-27T04:15:23;98846.06;;;2.02;100.00
65897;BME280;52677;50.898;10.854;2023-04-27T04:17:23;98854.25;;;2.02;100.00
65897;BME280;52677;50.898;10.854;2023-04-27T04:19:23;98858.13;;;2.01;100.00
65897;BME280;52677;50.898;10.854;2023-04-27T04:21:24;98856.78;;;1.98;100.00
65897;BME280;52677;50.898;10.854;2023-04-27T04:23:24;98861.66;;;2.02;100.00
65897;BME280;52677;50.898;10.854;2023-04-27T04:25:25;98854.59;;;2.01;100.00
65897;BME280;52677;50.898;10.854;2023-04-27T04:27:27;98845.59;;;2.00;100.00
65897;BME280;52677;50.898;10.854;2023-04-27T04:29:27;98854.25;;;2.02;100.00
65897;BME280;52677;50.898;10.854;2023-04-27T04:31:27;98846.56;;;2.04;100.00
65897;BME280;52677;50.898;10.854;2023-04-27T04:33:28;98858.59;;;2.03;100.00
65897;BME280;52677;50.898;10.854;2023-04-27T04:35:29;98859.72;;;2.02;100.00
65897;BME280;52677;50.898;10.854;2023-04-27T04:37:31;98861.66;;;2.02;100.00
65897;BME280;52677;50.898;10.854;2023-04-27T04:39:31;98860.84;;;2.01;100.00
65897;BME280;52677;50.898;10.854;2023-04-27T04:41:32;98854.59;;;2.01;100.00
65897;BME280;52677;50.898;10.854;2023-04-27T04:43:32;98860.22;;;2.04;100.00
65897;BME280;52677;50.898;10.854;2023-04-27T04:45:33;98865.41;;;2.14;100.00
65897;BME280;52677;50.898;10.854;2023-04-27T04:47:34;98859.34;;;2.17;100.00
65897;BME280;52677;50.898;10.854;2023-04-27T04:49:35;98852.31;;;2.25;100.00
65897;BME280;52677;50.898;10.854;2023-04-27T04:51:36;98843.97;;;2.30;100.00
65897;BME280;52677;50.898;10.854;2023-04-27T04:53:36;98846.88;;;2.34;100.00
65897;BME280;52677;50.898;10.854;2023-04-27T04:55:37;98851.38;;;2.38;100.00
65897;BME280;52677;50.898;10.854;2023-04-27T04:57:37;98858.78;;;2.38;100.00
65897;BME280;52677;50.898;10.854;2023-04-27T04:59:37;98850.56;;;2.38;100.00
65897;BME280;52677;50.898;10.854;2023-04-27T05:01:38;98861.97;;;2.40;100.00
65897;BME280;52677;50.898;10.854;2023-04-27T05:03:38;98859.75;;;2.42;100.00
65897;BME280;52677;50.898;10.854;2023-04-27T05:05:38;98855.59;;;2.44;100.00
65897;BME280;52677;50.898;10.854;2023-04-27T05:07:39;98857.06;;;2.50;100.00
65897;BME280;52677;50.898;10.854;2023-04-27T05:09:39;98853.69;;;2.53;100.00
65897;BME280;52677;50.898;10.854;2023-04-27T05:11:40;98845.19;;;2.55;100.00
65897;BME280;52677;50.898;10.854;2023-04-27T05:13:40;98843.13;;;2.61;100.00
65897;BME280;52677;50.898;10.854;2023-04-27T05:15:40;98845.72;;;2.66;100.00
65897;BME280;52677;50.898;10.854;2023-04-27T05:17:41;98834.16;;;2.69;100.00
65897;BME280;52677;50.898;10.854;2023-04-27T05:19:41;98842.19;;;2.74;100.00
65897;BME280;52677;50.898;10.854;2023-04-27T05:21:41;98846.03;;;2.73;100.00
65897;BME280;52677;50.898;10.854;2023-04-27T05:23:42;98869.03;;;2.72;100.00
65897;BME280;52677;50.898;10.854;2023-04-27T05:25:42;98871.41;;;2.65;100.00
65897;BME280;52677;50.898;10.854;2023-04-27T05:27:42;98881.53;;;2.64;100.00
65897;BME280;52677;50.898;10.854;2023-04-27T05:29:43;98879.44;;;2.61;100.00
65897;BME280;52677;50.898;10.854;2023-04-27T05:31:43;98867.38;;;2.62;100.00
65897;BME280;52677;50.898;10.854;2023-04-27T05:33:43;98876.88;;;2.65;100.00
65897;BME280;52677;50.898;10.854;2023-04-27T05:35:44;98872.53;;;2.64;100.00
65897;BME280;52677;50.898;10.854;2023-04-27T05:37:44;98878.16;;;2.59;100.00
65897;BME280;52677;50.898;10.854;2023-04-27T05:39:44;98878.94;;;2.59;100.00
65897;BME280;52677;50.898;10.854;2023-04-27T05:41:45;98874.13;;;2.65;100.00
65897;BME280;52677;50.898;10.854;2023-04-27T05:43:45;98878.81;;;2.73;100.00
65897;BME280;52677;50.898;10.854;2023-04-27T05:45:45;98881.44;;;2.87;100.00
65897;BME280;52677;50.898;10.854;2023-04-27T05:47:46;98880.00;;;2.98;100.00
65897;BME280;52677;50.898;10.854;2023-04-27T05:49:52;98880.09;;;3.15;100.00
65897;BME280;52677;50.898;10.854;2023-04-27T05:51:53;98879.13;;;3.28;100.00
65897;BME280;52677;50.898;10.854;2023-04-27T05:53:53;98878.19;;;3.42;100.00
65897;BME280;52677;50.898;10.854;2023-04-27T05:55:55;98886.19;;;3.47;100.00
65897;BME280;52677;50.898;10.854;2023-04-27T05:57:56;98890.56;;;3.48;100.00
65897;BME280;52677;50.898;10.854;2023-04-27T05:59:56;98897.16;;;3.47;100.00
65897;BME280;52677;50.898;10.854;2023-04-27T06:01:56;98899.88;;;3.47;100.00
65897;BME280;52677;50.898;10.854;2023-04-27T06:03:57;98898.13;;;3.51;100.00
65897;BME280;52677;50.898;10.854;2023-04-27T06:06:00;98902.31;;;3.57;100.00
65897;BME280;52677;50.898;10.854;2023-04-27T06:08:01;98899.41;;;3.62;100.00
65897;BME280;52677;50.898;10.854;2023-04-27T06:10:02;98894.59;;;3.67;100.00
65897;BME280;52677;50.898;10.854;2023-04-27T06:12:03;98903.44;;;3.73;100.00
65897;BME280;52677;50.898;10.854;2023-04-27T06:14:04;98905.38;;;3.81;100.00
65897;BME280;52677;50.898;10.854;2023-04-27T06:16:04;98894.44;;;3.81;100.00
65897;BME280;52677;50.898;10.854;2023-04-27T06:18:05;98898.59;;;3.87;100.00
65897;BME280;52677;50.898;10.854;2023-04-27T06:20:05;98898.09;;;3.94;100.00
65897;BME280;52677;50.898;10.854;2023-04-27T06:22:06;98905.03;;;4.00;100.00
65897;BME280;52677;50.898;10.854;2023-04-27T06:24:06;98901.94;;;4.10;100.00
65897;BME280;52677;50.898;10.854;2023-04-27T06:26:07;98904.34;;;4.20;100.00
65897;BME280;52677;50.898;10.854;2023-04-27T06:28:07;98908.97;;;4.37;100.00
65897;BME280;52677;50.898;10.854;2023-04-27T06:30:08;98900.22;;;4.53;100.00
65897;BME280;52677;50.898;10.854;2023-04-27T06:32:08;98895.72;;;4.57;100.00
65897;BME280;52677;50.898;10.854;2023-04-27T06:34:09;98889.53;;;4.68;100.00
65897;BME280;52677;50.898;10.854;2023-04-27T06:36:09;98888.06;;;4.71;100.00
65897;BME280;52677;50.898;10.854;2023-04-27T06:38:09;98896.78;;;4.73;100.00
65897;BME280;52677;50.898;10.854;2023-04-27T06:40:10;98892.91;;;4.74;100.00
65897;BME280;52677;50.898;10.854;2023-04-27T06:42:11;98896.06;;;4.85;99.00
65897;BME280;52677;50.898;10.854;2023-04-27T06:44:11;98899.84;;;5.01;98.92
65897;BME280;52677;50.898;10.854;2023-04-27T06:46:11;98913.00;;;5.16;98.88
65897;BME280;52677;50.898;10.854;2023-04-27T06:48:11;98914.56;;;5.26;99.80
65897;BME280;52677;50.898;10.854;2023-04-27T06:50:13;98910.03;;;5.30;100.00
65897;BME280;52677;50.898;10.854;2023-04-27T06:52:13;98909.00;;;5.34;99.55
65897;BME280;52677;50.898;10.854;2023-04-27T06:54:13;98908.34;;;5.38;99.44
65897;BME280;52677;50.898;10.854;2023-04-27T06:56:14;98905.41;;;5.43;98.36
65897;BME280;52677;50.898;10.854;2023-04-27T06:58:14;98907.47;;;5.46;94.96
65897;BME280;52677;50.898;10.854;2023-04-27T07:00:15;98897.13;;;5.51;97.14
65897;BME280;52677;50.898;10.854;2023-04-27T07:02:15;98908.72;;;5.57;96.26
65897;BME280;52677;50.898;10.854;2023-04-27T07:04:16;98906.75;;;5.57;96.94
65897;BME280;52677;50.898;10.854;2023-04-27T07:06:16;98908.38;;;5.58;95.19
65897;BME280;52677;50.898;10.854;2023-04-27T07:08:16;98906.81;;;5.70;92.83
65897;BME280;52677;50.898;10.854;2023-04-27T07:10:17;98904.09;;;5.90;93.19
65897;BME280;52677;50.898;10.854;2023-04-27T07:12:17;98906.44;;;6.01;90.81
65897;BME280;52677;50.898;10.854;2023-04-27T07:14:17;98911.75;;;6.18;88.78
65897;BME280;52677;50.898;10.854;2023-04-27T07:16:18;98904.56;;;6.26;87.14
65897;BME280;52677;50.898;10.854;2023-04-27T07:18:18;98921.50;;;6.28;88.83
65897;BME280;52677;50.898;10.854;2023-04-27T07:20:19;98922.66;;;6.27;87.07
65897;BME280;52677;50.898;10.854;2023-04-27T07:22:20;98919.44;;;6.25;88.35
65897;BME280;52677;50.898;10.854;2023-04-27T07:24:20;98925.84;;;6.16;89.59
65897;BME280;52677;50.898;10.854;2023-04-27T07:26:20;98919.00;;;6.02;88.90
65897;BME280;52677;50.898;10.854;2023-04-27T07:28:24;98912.81;;;5.93;89.75
65897;BME280;52677;50.898;10.854;2023-04-27T07:30:24;98911.66;;;5.94;88.75
65897;BME280;52677;50.898;10.854;2023-04-27T07:32:24;98916.41;;;6.05;89.34
65897;BME280;52677;50.898;10.854;2023-04-27T07:34:25;98920.53;;;6.11;88.86
65897;BME280;52677;50.898;10.854;2023-04-27T07:36:26;98916.91;;;6.19;88.77
65897;BME280;52677;50.898;10.854;2023-04-27T07:38:27;98916.34;;;6.26;89.71
65897;BME280;52677;50.898;10.854;2023-04-27T07:40:29;98908.38;;;6.33;88.66
65897;BME280;52677;50.898;10.854;2023-04-27T07:42:31;98904.94;;;6.36;89.26
65897;BME280;52677;50.898;10.854;2023-04-27T07:44:31;98911.47;;;6.44;90.92
65897;BME280;52677;50.898;10.854;2023-04-27T07:46:32;98913.91;;;6.45;90.09
65897;BME280;52677;50.898;10.854;2023-04-27T07:48:32;98917.81;;;6.57;89.21
65897;BME280;52677;50.898;10.854;2023-04-27T07:50:32;98913.38;;;6.64;85.82
65897;BME280;52677;50.898;10.854;2023-04-27T07:52:33;98918.63;;;6.69;83.99
65897;BME280;52677;50.898;10.854;2023-04-27T07:54:33;98909.13;;;6.67;85.09
65897;BME280;52677;50.898;10.854;2023-04-27T07:56:34;98915.88;;;6.69;83.45
65897;BME280;52677;50.898;10.854;2023-04-27T07:58:35;98923.13;;;6.74;83.49
65897;BME280;52677;50.898;10.854;2023-04-27T08:00:37;98920.38;;;6.74;85.70
65897;BME280;52677;50.898;10.854;2023-04-27T08:02:37;98926.56;;;6.83;82.79
65897;BME280;52677;50.898;10.854;2023-04-27T08:04:37;98921.53;;;6.85;82.80
65897;BME280;52677;50.898;10.854;2023-04-27T08:06:38;98923.81;;;6.83;81.73
65897;BME280;52677;50.898;10.854;2023-04-27T08:08:38;98916.50;;;6.87;81.16
65897;BME280;52677;50.898;10.854;2023-04-27T08:10:38;98918.00;;;6.97;82.97
65897;BME280;52677;50.898;10.854;2023-04-27T08:12:39;98920.28;;;7.07;82.77
65897;BME280;52677;50.898;10.854;2023-04-27T08:14:39;98925.78;;;7.07;78.88
65897;BME280;52677;50.898;10.854;2023-04-27T08:16:40;98918.91;;;7.13;80.39
65897;BME280;52677;50.898;10.854;2023-04-27T08:18:42;98919.81;;;7.17;81.58
65897;BME280;52677;50.898;10.854;2023-04-27T08:20:43;98923.81;;;7.20;79.50
65897;BME280;52677;50.898;10.854;2023-04-27T08:22:43;98927.03;;;7.22;80.93
65897;BME280;52677;50.898;10.854;2023-04-27T08:24:43;98917.75;;;7.26;81.63
65897;BME280;52677;50.898;10.854;2023-04-27T08:26:44;98925.06;;;7.35;80.76
65897;BME280;52677;50.898;10.854;2023-04-27T08:28:44;98923.13;;;7.47;78.46
65897;BME280;52677;50.898;10.854;2023-04-27T08:30:45;98930.81;;;7.42;78.49
65897;BME280;52677;50.898;10.854;2023-04-27T08:32:45;98921.75;;;7.41;78.09
65897;BME280;52677;50.898;10.854;2023-04-27T08:34:46;98921.88;;;7.45;78.83
65897;BME280;52677;50.898;10.854;2023-04-27T08:36:47;98927.47;;;7.48;79.43
65897;BME280;52677;50.898;10.854;2023-04-27T08:38:47;98924.81;;;7.52;77.76
65897;BME280;52677;50.898;10.854;2023-04-27T08:40:47;98917.38;;;7.40;78.12
65897;BME280;52677;50.898;10.854;2023-04-27T08:42:56;98921.38;;;7.43;77.78
65897;BME280;52677;50.898;10.854;2023-04-27T08:44:56;98922.91;;;7.40;78.09
65897;BME280;52677;50.898;10.854;2023-04-27T08:46:57;98918.28;;;7.44;78.57
65897;BME280;52677;50.898;10.854;2023-04-27T08:48:58;98914.84;;;7.47;79.12
65897;BME280;52677;50.898;10.854;2023-04-27T08:50:59;98921.63;;;7.50;78.06
65897;BME280;52677;50.898;10.854;2023-04-27T08:53:00;98915.41;;;7.53;81.65
65897;BME280;52677;50.898;10.854;2023-04-27T08:55:01;98921.47;;;7.58;78.89
65897;BME280;52677;50.898;10.854;2023-04-27T08:57:07;98907.34;;;7.60;77.46
65897;BME280;52677;50.898;10.854;2023-04-27T08:59:14;98905.28;;;7.69;77.71
65897;BME280;52677;50.898;10.854;2023-04-27T09:01:15;98905.97;;;7.78;77.92
65897;BME280;52677;50.898;10.854;2023-04-27T09:03:24;98893.63;;;7.88;76.13
65897;BME280;52677;50.898;10.854;2023-04-27T09:05:25;98902.13;;;7.95;76.92
65897;BME280;52677;50.898;10.854;2023-04-27T09:07:26;98900.25;;;7.99;76.01
65897;BME280;52677;50.898;10.854;2023-04-27T09:09:26;98891.25;;;8.02;76.10
65897;BME280;52677;50.898;10.854;2023-04-27T09:11:29;98892.28;;;8.10;74.31
65897;BME280;52677;50.898;10.854;2023-04-27T09:13:48;98896.34;;;8.00;74.10
65897;BME280;52677;50.898;10.854;2023-04-27T09:15:50;98889.44;;;8.06;74.00
65897;BME280;52677;50.898;10.854;2023-04-27T09:17:55;98892.09;;;8.03;73.67
65897;BME280;52677;50.898;10.854;2023-04-27T09:20:09;98891.03;;;8.07;75.26
65897;BME280;52677;50.898;10.854;2023-04-27T09:22:12;98885.50;;;8.07;73.25
65897;BME280;52677;50.898;10.854;2023-04-27T09:24:14;98879.84;;;8.16;76.63
65897;BME280;52677;50.898;10.854;2023-04-27T09:26:25;98887.59;;;8.26;73.93
65897;BME280;52677;50.898;10.854;2023-04-27T09:28:27;98885.63;;;8.27;75.70
65897;BME280;52677;50.898;10.854;2023-04-27T09:30:28;98886.19;;;8.32;76.41
65897;BME280;52677;50.898;10.854;2023-04-27T09:32:28;98884.59;;;8.31;74.42
65897;BME280;52677;50.898;10.854;2023-04-27T09:34:38;98875.38;;;8.39;76.51
65897;BME280;52677;50.898;10.854;2023-04-27T09:36:40;98886.44;;;8.55;73.28
65897;BME280;52677;50.898;10.854;2023-04-27T09:38:40;98887.31;;;8.75;74.80
65897;BME280;52677;50.898;10.854;2023-04-27T09:40:41;98878.97;;;8.87;76.50
65897;BME280;52677;50.898;10.854;2023-04-27T09:42:41;98882.16;;;8.89;73.90
65897;BME280;52677;50.898;10.854;2023-04-27T09:44:41;98878.50;;;9.01;73.81
65897;BME280;52677;50.898;10.854;2023-04-27T09:46:43;98884.56;;;9.07;75.83
65897;BME280;52677;50.898;10.854;2023-04-27T09:48:44;98877.88;;;9.08;71.99
65897;BME280;52677;50.898;10.854;2023-04-27T09:50:45;98875.25;;;8.80;70.97
65897;BME280;52677;50.898;10.854;2023-04-27T09:52:47;98878.25;;;8.90;71.43
65897;BME280;52677;50.898;10.854;2023-04-27T09:54:47;98872.09;;;8.97;73.40
65897;BME280;52677;50.898;10.854;2023-04-27T09:57:06;98869.22;;;9.09;72.12
65897;BME280;52677;50.898;10.854;2023-04-27T10:01:50;98871.50;;;9.39;75.13
65897;BME280;52677;50.898;10.854;2023-04-27T10:06:49;98865.50;;;9.52;71.67
65897;BME280;52677;50.898;10.854;2023-04-27T10:08:51;98867.25;;;9.61;69.21
65897;BME280;52677;50.898;10.854;2023-04-27T10:10:52;98867.16;;;9.57;72.99
65897;BME280;52677;50.898;10.854;2023-04-27T10:13:02;98873.91;;;9.40;68.23
65897;BME280;52677;50.898;10.854;2023-04-27T10:15:13;98867.72;;;9.47;68.75
65897;BME280;52677;50.898;10.854;2023-04-27T10:17:14;98871.72;;;9.49;69.77
65897;BME280;52677;50.898;10.854;2023-04-27T10:19:15;98866.50;;;9.44;70.22
65897;BME280;52677;50.898;10.854;2023-04-27T10:21:15;98871.44;;;9.54;70.94
65897;BME280;52677;50.898;10.854;2023-04-27T10:23:23;98869.06;;;9.53;69.14
65897;BME280;52677;50.898;10.854;2023-04-27T10:25:26;98863.97;;;9.20;67.09
65897;BME280;52677;50.898;10.854;2023-04-27T10:27:27;98871.94;;;9.41;67.90
65897;BME280;52677;50.898;10.854;2023-04-27T10:29:40;98867.03;;;9.34;69.91
65897;BME280;52677;50.898;10.854;2023-04-27T10:31:46;98853.16;;;9.31;70.03
65897;BME280;52677;50.898;10.854;2023-04-27T10:33:47;98852.81;;;9.51;71.42
65897;BME280;52677;50.898;10.854;2023-04-27T10:35:56;98861.72;;;9.61;69.41
65897;BME280;52677;50.898;10.854;2023-04-27T10:38:07;98857.28;;;9.75;68.47
65897;BME280;52677;50.898;10.854;2023-04-27T10:40:10;98858.22;;;9.83;69.09
65897;BME280;52677;50.898;10.854;2023-04-27T10:42:13;98861.66;;;9.96;69.27